sensor_id;sensor_type;location;lat;lon;timestamp;pressure;altitude;pressure_sealevel;temperature;humidity
70027;BME280;57506;50.092;15.804;2022-09-09T00:00:16;98854.91;;;11.07;100.00
70027;BME280;57506;50.092;15.804;2022-09-09T00:03:22;98851.97;;;10.89;100.00
70027;BME280;57506;50.092;15.804;2022-09-09T00:05:45;98849.63;;;10.73;100.00
70027;BME280;57506;50.092;15.804;2022-09-09T00:08:20;98860.34;;;11.34;100.00
70027;BME280;57506;50.092;15.804;2022-09-09T00:10:56;98838.53;;;11.29;100.00
70027;BME280;57506;50.092;15.804;2022-09-09T00:16:10;98861.97;;;11.15;100.00
70027;BME280;57506;50.092;15.804;2022-09-09T00:21:17;98859.25;;;10.95;100.00
70027;BME280;57506;50.092;15.804;2022-09-09T00:23:51;98852.97;;;10.75;100.00
70027;BME280;57506;50.092;15.804;2022-09-09T00:26:31;98861.66;;;10.64;100.00
70027;BME280;57506;50.092;15.804;2022-09-09T00:31:37;98860.47;;;10.32;100.00
70027;BME280;57506;50.092;15.804;2022-09-09T00:34:16;98872.28;;;10.31;100.00
70027;BME280;57506;50.092;15.804;2022-09-09T00:36:45;98861.91;;;10.28;100.00
70027;BME280;57506;50.092;15.804;2022-09-09T00:39:31;98866.94;;;10.37;100.00
70027;BME280;57506;50.092;15.804;2022-09-09T00:42:17;98850.53;;;10.32;100.00
70027;BME280;57506;50.092;15.804;2022-09-09T00:47:43;98851.81;;;10.43;100.00
70027;BME280;57506;50.092;15.804;2022-09-09T00:52:39;98850.97;;;11.23;100.00
70027;BME280;57506;50.092;15.804;2022-09-09T00:57:44;98851.81;;;11.37;100.00
70027;BME280;57506;50.092;15.804;2022-09-09T01:00:27;98858.25;;;11.29;100.00
70027;BME280;57506;50.092;15.804;2022-09-09T01:10:58;98881.06;;;10.46;100.00
70027;BME280;57506;50.092;15.804;2022-09-09T01:13:28;98890.34;;;10.37;100.00
70027;BME280;57506;50.092;15.804;2022-09-09T01:15:58;98879.97;;;10.34;100.00
70027;BME280;57506;50.092;15.804;2022-09-09T01:18:28;98877.53;;;10.39;100.00
70027;BME280;57506;50.092;15.804;2022-09-09T01:23:40;98892.28;;;10.56;100.00
70027;BME280;57506;50.092;15.804;2022-09-09T01:26:15;98889.81;;;10.61;100.00
70027;BME280;57506;50.092;15.804;2022-09-09T01:28:44;98890.38;;;10.43;100.00
70027;BME280;57506;50.092;15.804;2022-09-09T01:31:15;98889.78;;;10.48;100.00
70027;BME280;57506;50.092;15.804;2022-09-09T01:33:42;98898.25;;;10.38;100.00
70027;BME280;57506;50.092;15.804;2022-09-09T01:38:42;98885.28;;;10.21;100.00
70027;BME280;57506;50.092;15.804;2022-09-09T01:41:07;98880.63;;;10.08;100.00
70027;BME280;57506;50.092;15.804;2022-09-09T01:43:33;98890.50;;;10.22;100.00
70027;BME280;57506;50.092;15.804;2022-09-09T01:46:00;98894.16;;;10.56;100.00
70027;BME280;57506;50.092;15.804;2022-09-09T01:48:27;98869.75;;;10.70;100.00
70027;BME280;57506;50.092;15.804;2022-09-09T01:50:53;98873.59;;;11.02;100.00
70027;BME280;57506;50.092;15.804;2022-09-09T01:53:20;98871.06;;;10.94;100.00
70027;BME280;57506;50.092;15.804;2022-09-09T02:01:58;98891.19;;;10.44;100.00
70027;BME280;57506;50.092;15.804;2022-09-09T02:04:44;98890.31;;;10.30;100.00
70027;BME280;57506;50.092;15.804;2022-09-09T02:07:41;98886.53;;;10.25;100.00
70027;BME280;57506;50.092;15.804;2022-09-09T02:10:30;98890.22;;;10.17;100.00
70027;BME280;57506;50.092;15.804;2022-09-09T02:13:05;98879.91;;;10.21;100.00
70027;BME280;57506;50.092;15.804;2022-09-09T02:15:57;98878.59;;;10.51;100.00
70027;BME280;57506;50.092;15.804;2022-09-09T02:18:34;98871.06;;;10.88;100.00
70027;BME280;57506;50.092;15.804;2022-09-09T02:21:02;98879.78;;;10.42;100.00
70027;BME280;57506;50.092;15.804;2022-09-09T02:23:29;98888.63;;;10.23;100.00
70027;BME280;57506;50.092;15.804;2022-09-09T02:25:58;98887.00;;;10.00;100.00
70027;BME280;57506;50.092;15.804;2022-09-09T02:28:26;98889.41;;;9.89;100.00
70027;BME280;57506;50.092;15.804;2022-09-09T02:30:54;98888.88;;;9.72;100.00
70027;BME280;57506;50.092;15.804;2022-09-09T02:33:25;98880.13;;;10.26;100.00
70027;BME280;57506;50.092;15.804;2022-09-09T02:35:52;98866.44;;;10.68;100.00
70027;BME280;57506;50.092;15.804;2022-09-09T02:38:20;98890.94;;;10.80;100.00
70027;BME280;57506;50.092;15.804;2022-09-09T02:40:47;98893.16;;;10.63;100.00
70027;BME280;57506;50.092;15.804;2022-09-09T02:43:16;98884.16;;;10.43;100.00
70027;BME280;57506;50.092;15.804;2022-09-09T02:45:53;98894.28;;;10.41;100.00
70027;BME280;57506;50.092;15.804;2022-09-09T02:48:50;98903.56;;;10.32;100.00
70027;BME280;57506;50.092;15.804;2022-09-09T02:51:35;98902.56;;;10.33;100.00
70027;BME280;57506;50.092;15.804;2022-09-09T02:54:40;98905.16;;;10.54;100.00
70027;BME280;57506;50.092;15.804;2022-09-09T02:57:13;98904.97;;;10.62;100.00
70027;BME280;57506;50.092;15.804;2022-09-09T02:59:40;98903.41;;;10.40;100.00
70027;BME280;57506;50.092;15.804;2022-09-09T03:02:07;98896.28;;;10.26;100.00
70027;BME280;57506;50.092;15.804;2022-09-09T03:04:32;98896.81;;;10.14;100.00
70027;BME280;57506;50.092;15.804;2022-09-09T03:06:58;98895.84;;;9.94;100.00
70027;BME280;57506;50.092;15.804;2022-09-09T03:09:24;98897.25;;;9.83;100.00
70027;BME280;57506;50.092;15.804;2022-09-09T03:11:51;98910.88;;;9.82;100.00
70027;BME280;57506;50.092;15.804;2022-09-09T03:14:17;98889.41;;;9.61;100.00
70027;BME280;57506;50.092;15.804;2022-09-09T03:16:46;98896.06;;;9.65;100.00
70027;BME280;57506;50.092;15.804;2022-09-09T03:19:12;98905.38;;;9.90;100.00
70027;BME280;57506;50.092;15.804;2022-09-09T03:21:38;98891.50;;;10.21;100.00
70027;BME280;57506;50.092;15.804;2022-09-09T03:24:04;98917.81;;;10.26;100.00
70027;BME280;57506;50.092;15.804;2022-09-09T03:26:30;98906.03;;;9.99;100.00
70027;BME280;57506;50.092;15.804;2022-09-09T03:28:56;98906.91;;;9.78;100.00
70027;BME280;57506;50.092;15.804;2022-09-09T03:31:22;98897.88;;;9.58;100.00
70027;BME280;57506;50.092;15.804;2022-09-09T03:33:47;98913.38;;;9.56;100.00
70027;BME280;57506;50.092;15.804;2022-09-09T03:36:14;98902.47;;;9.42;100.00
70027;BME280;57506;50.092;15.804;2022-09-09T03:38:40;98904.75;;;9.39;100.00
70027;BME280;57506;50.092;15.804;2022-09-09T03:41:06;98906.00;;;9.43;100.00
70027;BME280;57506;50.092;15.804;2022-09-09T03:43:33;98914.69;;;9.38;100.00
70027;BME280;57506;50.092;15.804;2022-09-09T03:45:58;98907.75;;;9.29;100.00
70027;BME280;57506;50.092;15.804;2022-09-09T03:48:24;98914.97;;;9.29;100.00
70027;BME280;57506;50.092;15.804;2022-09-09T03:50:53;98908.13;;;9.26;100.00
70027;BME280;57506;50.092;15.804;2022-09-09T03:53:22;98917.09;;;9.55;100.00
70027;BME280;57506;50.092;15.804;2022-09-09T03:55:49;98884.56;;;9.28;100.00
70027;BME280;57506;50.092;15.804;2022-09-09T03:58:18;98910.63;;;9.28;100.00
70027;BME280;57506;50.092;15.804;2022-09-09T04:01:02;98919.28;;;9.23;100.00
70027;BME280;57506;50.092;15.804;2022-09-09T04:03:28;98913.97;;;9.30;100.00
70027;BME280;57506;50.092;15.804;2022-09-09T04:05:55;98909.03;;;9.33;100.00
70027;BME280;57506;50.092;15.804;2022-09-09T04:08:22;98905.22;;;9.21;100.00
70027;BME280;57506;50.092;15.804;2022-09-09T04:10:51;98911.41;;;9.22;100.00
70027;BME280;57506;50.092;15.804;2022-09-09T04:13:17;98910.59;;;9.21;100.00
70027;BME280;57506;50.092;15.804;2022-09-09T04:15:44;98910.59;;;9.21;100.00
70027;BME280;57506;50.092;15.804;2022-09-09T04:18:10;98914.94;;;9.22;100.00
70027;BME280;57506;50.092;15.804;2022-09-09T04:20:37;98902.72;;;9.20;100.00
70027;BME280;57506;50.092;15.804;2022-09-09T04:23:03;98911.88;;;9.25;100.00
70027;BME280;57506;50.092;15.804;2022-09-09T04:25:29;98899.78;;;9.42;100.00
70027;BME280;57506;50.092;15.804;2022-09-09T04:27:56;98910.69;;;9.83;100.00
70027;BME280;57506;50.092;15.804;2022-09-09T04:30:22;98903.25;;;9.86;100.00
70027;BME280;57506;50.092;15.804;2022-09-09T04:32:48;98901.50;;;9.71;100.00
70027;BME280;57506;50.092;15.804;2022-09-09T04:35:14;98912.22;;;9.43;100.00
70027;BME280;57506;50.092;15.804;2022-09-09T04:37:40;98909.03;;;9.33;100.00
70027;BME280;57506;50.092;15.804;2022-09-09T04:40:06;98924.25;;;9.26;100.00
70027;BME280;57506;50.092;15.804;2022-09-09T04:42:38;98927.34;;;9.23;100.00
70027;BME280;57506;50.092;15.804;2022-09-09T04:45:05;98914.53;;;9.04;100.00
70027;BME280;57506;50.092;15.804;2022-09-09T04:47:32;98942.31;;;9.11;100.00
70027;BME280;57506;50.092;15.804;2022-09-09T04:49:57;98925.34;;;9.10;100.00
70027;BME280;57506;50.092;15.804;2022-09-09T04:52:23;98915.00;;;9.07;100.00
70027;BME280;57506;50.092;15.804;2022-09-09T04:54:49;98922.09;;;9.15;100.00
70027;BME280;57506;50.092;15.804;2022-09-09T04:57:14;98921.84;;;9.53;100.00
70027;BME280;57506;50.092;15.804;2022-09-09T04:59:40;98913.22;;;9.64;100.00
70027;BME280;57506;50.092;15.804;2022-09-09T05:02:18;98914.31;;;9.69;100.00
70027;BME280;57506;50.092;15.804;2022-09-09T05:04:44;98917.75;;;9.85;100.00
70027;BME280;57506;50.092;15.804;2022-09-09T05:07:09;98923.41;;;9.96;100.00
70027;BME280;57506;50.092;15.804;2022-09-09T05:09:35;98942.16;;;10.11;100.00
70027;BME280;57506;50.092;15.804;2022-09-09T05:12:01;98921.34;;;10.20;100.00
70027;BME280;57506;50.092;15.804;2022-09-09T05:14:27;98925.63;;;10.48;100.00
70027;BME280;57506;50.092;15.804;2022-09-09T05:16:53;98949.09;;;10.61;100.00
70027;BME280;57506;50.092;15.804;2022-09-09T05:19:20;98932.34;;;10.66;100.00
70027;BME280;57506;50.092;15.804;2022-09-09T05:21:46;98942.81;;;10.95;100.00
70027;BME280;57506;50.092;15.804;2022-09-09T05:24:12;98937.09;;;11.18;100.00
70027;BME280;57506;50.092;15.804;2022-09-09T05:26:37;98942.75;;;11.69;100.00
70027;BME280;57506;50.092;15.804;2022-09-09T05:29:03;98940.06;;;12.09;100.00
70027;BME280;57506;50.092;15.804;2022-09-09T05:31:29;98935.66;;;12.47;100.00
70027;BME280;57506;50.092;15.804;2022-09-09T05:33:55;98923.69;;;12.68;100.00
70027;BME280;57506;50.092;15.804;2022-09-09T05:36:22;98916.25;;;12.64;100.00
70027;BME280;57506;50.092;15.804;2022-09-09T05:38:48;98913.75;;;12.62;100.00
70027;BME280;57506;50.092;15.804;2022-09-09T05:41:15;98936.59;;;12.73;100.00
70027;BME280;57506;50.092;15.804;2022-09-09T05:43:50;98922.44;;;12.77;100.00
70027;BME280;57506;50.092;15.804;2022-09-09T05:46:18;98936.28;;;12.94;100.00
70027;BME280;57506;50.092;15.804;2022-09-09T05:48:46;98935.22;;;13.02;100.00
70027;BME280;57506;50.092;15.804;2022-09-09T05:51:13;98935.38;;;13.13;100.00
70027;BME280;57506;50.092;15.804;2022-09-09T05:53:43;98935.53;;;13.25;100.00
70027;BME280;57506;50.092;15.804;2022-09-09T05:58:40;98929.91;;;13.58;100.00
70027;BME280;57506;50.092;15.804;2022-09-09T06:01:09;98943.63;;;13.88;100.00
70027;BME280;57506;50.092;15.804;2022-09-09T06:03:52;98947.41;;;14.12;100.00
70027;BME280;57506;50.092;15.804;2022-09-09T06:06:23;98950.19;;;14.23;100.00
70027;BME280;57506;50.092;15.804;2022-09-09T06:08:52;98954.00;;;14.41;100.00
70027;BME280;57506;50.092;15.804;2022-09-09T06:11:22;98959.47;;;14.59;100.00
70027;BME280;57506;50.092;15.804;2022-09-09T06:13:49;98955.66;;;14.78;100.00
70027;BME280;57506;50.092;15.804;2022-09-09T06:16:19;98973.16;;;14.82;100.00
70027;BME280;57506;50.092;15.804;2022-09-09T06:18:45;98948.84;;;14.76;100.00
70027;BME280;57506;50.092;15.804;2022-09-09T06:21:18;98968.16;;;14.97;100.00
70027;BME280;57506;50.092;15.804;2022-09-09T06:23:44;98952.28;;;15.01;100.00
70027;BME280;57506;50.092;15.804;2022-09-09T06:26:13;98963.28;;;15.06;100.00
70027;BME280;57506;50.092;15.804;2022-09-09T06:28:39;98960.34;;;14.89;100.00
70027;BME280;57506;50.092;15.804;2022-09-09T06:31:07;98947.00;;;14.88;100.00
70027;BME280;57506;50.092;15.804;2022-09-09T06:33:37;98958.91;;;15.05;100.00
70027;BME280;57506;50.092;15.804;2022-09-09T06:36:14;98960.38;;;15.19;100.00
70027;BME280;57506;50.092;15.804;2022-09-09T06:38:40;98966.28;;;15.46;100.00
70027;BME280;57506;50.092;15.804;2022-09-09T06:41:08;98969.03;;;15.88;100.00
70027;BME280;57506;50.092;15.804;2022-09-09T06:43:34;98971.66;;;16.06;100.00
70027;BME280;57506;50.092;15.804;2022-09-09T06:46:09;98965.28;;;16.12;100.00
70027;BME280;57506;50.092;15.804;2022-09-09T06:48:36;98969.78;;;16.18;100.00
70027;BME280;57506;50.092;15.804;2022-09-09T06:51:05;98965.53;;;16.34;100.00
70027;BME280;57506;50.092;15.804;2022-09-09T06:53:32;98976.28;;;16.29;100.00
70027;BME280;57506;50.092;15.804;2022-09-09T06:56:00;98969.19;;;16.39;100.00
70027;BME280;57506;50.092;15.804;2022-09-09T06:58:27;98965.75;;;16.44;100.00
70027;BME280;57506;50.092;15.804;2022-09-09T07:01:07;98967.75;;;16.60;100.00
70027;BME280;57506;50.092;15.804;2022-09-09T07:03:33;98969.09;;;16.69;100.00
70027;BME280;57506;50.092;15.804;2022-09-09T07:05:59;98977.94;;;16.88;100.00
70027;BME280;57506;50.092;15.804;2022-09-09T07:08:25;98978.25;;;17.03;100.00
70027;BME280;57506;50.092;15.804;2022-09-09T07:10:52;98964.13;;;17.06;100.00
70027;BME280;57506;50.092;15.804;2022-09-09T07:13:25;98969.34;;;17.08;100.00
70027;BME280;57506;50.092;15.804;2022-09-09T07:15:51;98964.28;;;17.00;100.00
70027;BME280;57506;50.092;15.804;2022-09-09T07:18:17;98981.53;;;17.17;100.00
70027;BME280;57506;50.092;15.804;2022-09-09T07:20:52;98974.03;;;17.24;100.00
70027;BME280;57506;50.092;15.804;2022-09-09T07:23:18;98973.28;;;17.57;100.00
70027;BME280;57506;50.092;15.804;2022-09-09T07:25:46;98992.13;;;17.87;100.00
70027;BME280;57506;50.092;15.804;2022-09-09T07:28:13;98977.41;;;17.88;100.00
70027;BME280;57506;50.092;15.804;2022-09-09T07:30:39;98970.00;;;17.83;100.00
70027;BME280;57506;50.092;15.804;2022-09-09T07:33:05;98982.88;;;18.05;100.00
70027;BME280;57506;50.092;15.804;2022-09-09T07:35:31;98985.44;;;17.95;100.00
70027;BME280;57506;50.092;15.804;2022-09-09T07:37:56;98968.28;;;17.94;100.00
70027;BME280;57506;50.092;15.804;2022-09-09T07:40:24;98973.06;;;18.04;100.00
70027;BME280;57506;50.092;15.804;2022-09-09T07:42:50;98968.13;;;18.01;100.00
70027;BME280;57506;50.092;15.804;2022-09-09T07:45:15;98966.03;;;18.08;100.00
70027;BME280;57506;50.092;15.804;2022-09-09T07:47:41;98973.22;;;17.97;100.00
70027;BME280;57506;50.092;15.804;2022-09-09T07:50:08;98979.50;;;17.98;100.00
70027;BME280;57506;50.092;15.804;2022-09-09T07:52:35;98986.28;;;18.12;100.00
70027;BME280;57506;50.092;15.804;2022-09-09T07:55:01;98985.31;;;18.18;100.00
70027;BME280;57506;50.092;15.804;2022-09-09T07:57:28;98981.75;;;18.17;100.00
70027;BME280;57506;50.092;15.804;2022-09-09T07:59:56;98982.63;;;18.40;100.00
70027;BME280;57506;50.092;15.804;2022-09-09T08:02:22;98978.00;;;18.40;100.00
70027;BME280;57506;50.092;15.804;2022-09-09T08:04:48;98978.50;;;18.37;100.00
70027;BME280;57506;50.092;15.804;2022-09-09T08:07:14;98984.28;;;18.58;100.00
70027;BME280;57506;50.092;15.804;2022-09-09T08:09:41;98996.94;;;18.47;100.00
70027;BME280;57506;50.092;15.804;2022-09-09T08:12:07;98991.06;;;18.38;100.00
70027;BME280;57506;50.092;15.804;2022-09-09T08:14:33;98990.31;;;18.43;100.00
70027;BME280;57506;50.092;15.804;2022-09-09T08:16:58;98989.50;;;18.42;100.00
70027;BME280;57506;50.092;15.804;2022-09-09T08:19:24;98970.25;;;18.32;100.00
70027;BME280;57506;50.092;15.804;2022-09-09T08:21:50;98986.78;;;18.42;100.00
70027;BME280;57506;50.092;15.804;2022-09-09T08:24:16;98983.31;;;18.47;100.00
70027;BME280;57506;50.092;15.804;2022-09-09T08:26:43;98977.53;;;18.27;100.00
70027;BME280;57506;50.092;15.804;2022-09-09T08:29:11;98990.91;;;18.28;100.00
70027;BME280;57506;50.092;15.804;2022-09-09T08:31:53;98978.44;;;18.66;100.00
70027;BME280;57506;50.092;15.804;2022-09-09T08:34:23;98970.00;;;18.50;100.00
70027;BME280;57506;50.092;15.804;2022-09-09T08:36:50;98970.75;;;18.63;100.00
70027;BME280;57506;50.092;15.804;2022-09-09T08:39:18;98975.09;;;18.80;100.00
70027;BME280;57506;50.092;15.804;2022-09-09T08:52:37;99002.16;;;19.47;97.53
70027;BME280;57506;50.092;15.804;2022-09-09T08:57:39;99000.44;;;19.63;100.00
70027;BME280;57506;50.092;15.804;2022-09-09T09:00:07;99007.88;;;19.46;99.84
70027;BME280;57506;50.092;15.804;2022-09-09T09:06:06;99007.13;;;19.29;96.42
70027;BME280;57506;50.092;15.804;2022-09-09T09:08:20;99007.69;;;19.31;100.00
70027;BME280;57506;50.092;15.804;2022-09-09T09:10:53;99002.41;;;19.46;100.00
70027;BME280;57506;50.092;15.804;2022-09-09T09:16:19;98976.44;;;19.70;100.00
70027;BME280;57506;50.092;15.804;2022-09-09T09:18:48;98982.81;;;19.54;98.98
70027;BME280;57506;50.092;15.804;2022-09-09T09:21:41;98991.47;;;20.00;100.00
70027;BME280;57506;50.092;15.804;2022-09-09T09:26:58;98974.53;;;20.03;100.00
70027;BME280;57506;50.092;15.804;2022-09-09T09:29:26;98979.69;;;19.94;96.76
70027;BME280;57506;50.092;15.804;2022-09-09T09:31:55;98979.00;;;20.09;95.76
70027;BME280;57506;50.092;15.804;2022-09-09T09:34:23;98966.47;;;20.18;96.29
70027;BME280;57506;50.092;15.804;2022-09-09T09:36:57;98962.75;;;20.34;97.44
70027;BME280;57506;50.092;15.804;2022-09-09T09:41:53;98956.31;;;20.45;99.66
70027;BME280;57506;50.092;15.804;2022-09-09T09:44:31;98979.41;;;20.65;95.02
70027;BME280;57506;50.092;15.804;2022-09-09T09:47:20;98966.53;;;20.65;94.22
70027;BME280;57506;50.092;15.804;2022-09-09T09:49:58;98971.75;;;20.62;93.63
70027;BME280;57506;50.092;15.804;2022-09-09T09:52:29;98966.81;;;20.64;95.17
70027;BME280;57506;50.092;15.804;2022-09-09T09:54:57;98943.78;;;20.54;94.69
70027;BME280;57506;50.092;15.804;2022-09-09T09:57:27;98971.00;;;20.76;92.24
70027;BME280;57506;50.092;15.804;2022-09-09T10:00:14;98930.59;;;20.51;89.58
70027;BME280;57506;50.092;15.804;2022-09-09T10:02:42;98942.16;;;20.58;88.72
70027;BME280;57506;50.092;15.804;2022-09-09T10:07:44;98954.47;;;21.18;86.76
70027;BME280;57506;50.092;15.804;2022-09-09T10:11:01;98956.19;;;21.29;92.12
70027;BME280;57506;50.092;15.804;2022-09-09T10:19:04;98957.63;;;21.42;88.80
70027;BME280;57506;50.092;15.804;2022-09-09T10:26:52;98952.16;;;21.57;89.96
70027;BME280;57506;50.092;15.804;2022-09-09T10:35:30;98939.81;;;22.77;82.15
70027;BME280;57506;50.092;15.804;2022-09-09T10:57:17;98919.53;;;23.76;73.99
70027;BME280;57506;50.092;15.804;2022-09-09T10:59:50;98937.03;;;23.90;72.34
70027;BME280;57506;50.092;15.804;2022-09-09T11:02:29;98942.25;;;23.92;66.25
70027;BME280;57506;50.092;15.804;2022-09-09T11:07:40;98899.94;;;23.38;67.57
70027;BME280;57506;50.092;15.804;2022-09-09T11:12:57;98878.38;;;23.61;69.58
70027;BME280;57506;50.092;15.804;2022-09-09T11:15:36;98918.38;;;23.82;68.72
70027;BME280;57506;50.092;15.804;2022-09-09T11:18:11;98904.97;;;24.04;75.02
70027;BME280;57506;50.092;15.804;2022-09-09T11:20:39;98909.22;;;24.26;70.76
70027;BME280;57506;50.092;15.804;2022-09-09T11:23:11;98883.94;;;24.19;68.68
70027;BME280;57506;50.092;15.804;2022-09-09T11:25:41;98926.69;;;24.11;66.94
70027;BME280;57506;50.092;15.804;2022-09-09T11:28:29;98926.38;;;24.47;72.65
70027;BME280;57506;50.092;15.804;2022-09-09T11:33:58;98920.50;;;24.53;70.45
70027;BME280;57506;50.092;15.804;2022-09-09T11:44:41;98894.97;;;24.48;69.51
70027;BME280;57506;50.092;15.804;2022-09-09T11:47:29;98902.13;;;24.72;68.57
70027;BME280;57506;50.092;15.804;2022-09-09T11:52:44;98899.19;;;24.88;66.79
70027;BME280;57506;50.092;15.804;2022-09-09T11:55:28;98869.41;;;24.66;66.59
70027;BME280;57506;50.092;15.804;2022-09-09T12:00:41;98883.72;;;24.44;65.19
70027;BME280;57506;50.092;15.804;2022-09-09T12:05:59;98900.22;;;24.68;66.55
70027;BME280;57506;50.092;15.804;2022-09-09T12:08:34;98889.34;;;24.82;64.61
70027;BME280;57506;50.092;15.804;2022-09-09T12:11:02;98898.59;;;24.91;65.80
70027;BME280;57506;50.092;15.804;2022-09-09T12:13:29;98888.28;;;25.01;64.24
70027;BME280;57506;50.092;15.804;2022-09-09T12:15:58;98904.31;;;25.18;66.01
70027;BME280;57506;50.092;15.804;2022-09-09T12:18:37;98903.94;;;25.06;65.40
70027;BME280;57506;50.092;15.804;2022-09-09T12:23:43;98882.63;;;24.88;65.27
70027;BME280;57506;50.092;15.804;2022-09-09T12:32:08;98888.28;;;24.77;66.10
70027;BME280;57506;50.092;15.804;2022-09-09T12:34:40;98865.94;;;25.03;65.02
70027;BME280;57506;50.092;15.804;2022-09-09T12:39:47;98868.34;;;24.62;65.41
70027;BME280;57506;50.092;15.804;2022-09-09T12:42:19;98869.03;;;24.72;65.62
70027;BME280;57506;50.092;15.804;2022-09-09T12:45:30;98865.06;;;24.84;65.77
70027;BME280;57506;50.092;15.804;2022-09-09T12:47:59;98855.66;;;24.85;66.17
70027;BME280;57506;50.092;15.804;2022-09-09T12:50:36;98842.22;;;25.02;64.46
70027;BME280;57506;50.092;15.804;2022-09-09T12:53:26;98858.94;;;24.87;61.56
70027;BME280;57506;50.092;15.804;2022-09-09T12:55:59;98857.97;;;24.77;63.23
70027;BME280;57506;50.092;15.804;2022-09-09T12:58:26;98854.38;;;24.77;64.54
70027;BME280;57506;50.092;15.804;2022-09-09T13:00:55;98828.00;;;24.71;63.88
70027;BME280;57506;50.092;15.804;2022-09-09T13:03:23;98862.00;;;24.85;66.19
70027;BME280;57506;50.092;15.804;2022-09-09T13:05:50;98826.25;;;24.56;65.61
70027;BME280;57506;50.092;15.804;2022-09-09T13:08:17;98854.91;;;24.79;65.39
70027;BME280;57506;50.092;15.804;2022-09-09T13:11:01;98850.16;;;24.37;65.95
70027;BME280;57506;50.092;15.804;2022-09-09T13:13:36;98877.69;;;24.66;64.94
70027;BME280;57506;50.092;15.804;2022-09-09T13:16:05;98834.28;;;24.53;66.66
70027;BME280;57506;50.092;15.804;2022-09-09T13:18:35;98864.25;;;24.59;67.33
70027;BME280;57506;50.092;15.804;2022-09-09T13:21:01;98852.16;;;24.55;64.35
70027;BME280;57506;50.092;15.804;2022-09-09T13:23:30;98822.75;;;24.51;63.66
70027;BME280;57506;50.092;15.804;2022-09-09T13:25:57;98853.56;;;24.76;64.67
70027;BME280;57506;50.092;15.804;2022-09-09T13:28:27;98850.63;;;24.68;63.06
70027;BME280;57506;50.092;15.804;2022-09-09T13:31:04;98854.69;;;24.75;64.75
70027;BME280;57506;50.092;15.804;2022-09-09T13:33:37;98855.41;;;24.62;65.56
70027;BME280;57506;50.092;15.804;2022-09-09T13:36:10;98855.78;;;24.74;66.69
70027;BME280;57506;50.092;15.804;2022-09-09T13:38:53;98851.97;;;24.70;66.89
70027;BME280;57506;50.092;15.804;2022-09-09T13:41:33;98837.28;;;24.56;68.79
70027;BME280;57506;50.092;15.804;2022-09-09T13:44:00;98842.75;;;24.61;66.52
70027;BME280;57506;50.092;15.804;2022-09-09T13:46:37;98838.19;;;24.70;64.27
70027;BME280;57506;50.092;15.804;2022-09-09T13:51:39;98836.22;;;24.52;65.80
70027;BME280;57506;50.092;15.804;2022-09-09T13:54:06;98831.53;;;24.76;63.42
70027;BME280;57506;50.092;15.804;2022-09-09T13:56:35;98831.13;;;24.64;64.74
70027;BME280;57506;50.092;15.804;2022-09-09T13:59:02;98826.63;;;24.21;69.37
70027;BME280;57506;50.092;15.804;2022-09-09T14:01:30;98821.03;;;23.73;69.59
70027;BME280;57506;50.092;15.804;2022-09-09T14:04:04;98814.97;;;23.76;71.19
70027;BME280;57506;50.092;15.804;2022-09-09T14:06:32;98832.72;;;23.89;70.16
70027;BME280;57506;50.092;15.804;2022-09-09T14:08:58;98825.41;;;23.79;67.13
70027;BME280;57506;50.092;15.804;2022-09-09T14:11:24;98800.19;;;23.67;68.54
70027;BME280;57506;50.092;15.804;2022-09-09T14:13:49;98810.13;;;23.63;68.65
70027;BME280;57506;50.092;15.804;2022-09-09T14:16:16;98779.59;;;23.25;70.01
70027;BME280;57506;50.092;15.804;2022-09-09T14:18:43;98852.59;;;23.52;72.00
70027;BME280;57506;50.092;15.804;2022-09-09T14:21:09;98798.19;;;22.99;71.85
70027;BME280;57506;50.092;15.804;2022-09-09T14:23:35;98783.44;;;22.85;69.37
70027;BME280;57506;50.092;15.804;2022-09-09T14:26:01;98818.13;;;23.20;68.26
70027;BME280;57506;50.092;15.804;2022-09-09T14:28:26;98795.63;;;23.13;67.54
70027;BME280;57506;50.092;15.804;2022-09-09T14:30:53;98831.50;;;23.37;70.52
70027;BME280;57506;50.092;15.804;2022-09-09T14:33:19;98836.63;;;23.54;67.97
70027;BME280;57506;50.092;15.804;2022-09-09T14:35:44;98844.34;;;23.52;68.94
70027;BME280;57506;50.092;15.804;2022-09-09T14:38:10;98829.47;;;23.53;69.68
70027;BME280;57506;50.092;15.804;2022-09-09T14:40:37;98828.56;;;23.62;70.86
70027;BME280;57506;50.092;15.804;2022-09-09T14:43:04;98841.78;;;23.60;70.03
70027;BME280;57506;50.092;15.804;2022-09-09T14:47:56;98807.13;;;23.59;69.21
70027;BME280;57506;50.092;15.804;2022-09-09T14:50:22;98839.19;;;23.74;70.10
70027;BME280;57506;50.092;15.804;2022-09-09T14:52:48;98819.59;;;23.52;69.58
70027;BME280;57506;50.092;15.804;2022-09-09T14:55:14;98827.28;;;23.50;70.25
70027;BME280;57506;50.092;15.804;2022-09-09T14:57:41;98791.31;;;23.02;71.47
70027;BME280;57506;50.092;15.804;2022-09-09T15:00:08;98809.19;;;22.99;71.38
70027;BME280;57506;50.092;15.804;2022-09-09T15:02:34;98824.94;;;23.28;69.37
70027;BME280;57506;50.092;15.804;2022-09-09T15:04:59;98814.72;;;22.89;73.08
70027;BME280;57506;50.092;15.804;2022-09-09T15:07:25;98815.06;;;22.83;72.90
70027;BME280;57506;50.092;15.804;2022-09-09T15:09:52;98775.56;;;22.58;72.79
70027;BME280;57506;50.092;15.804;2022-09-09T15:12:18;98823.03;;;22.74;73.65
70027;BME280;57506;50.092;15.804;2022-09-09T15:14:45;98798.13;;;22.55;74.62
70027;BME280;57506;50.092;15.804;2022-09-09T15:17:11;98803.31;;;22.57;74.70
70027;BME280;57506;50.092;15.804;2022-09-09T15:19:37;98795.41;;;22.45;77.37
70027;BME280;57506;50.092;15.804;2022-09-09T15:22:04;98821.38;;;22.73;74.57